createdAt,value
2022-09-20T00:01:08.711Z,9.75
2022-09-20T00:03:37.273Z,8.73
2022-09-20T00:06:05.582Z,7.88
2022-09-20T00:08:32.345Z,14.60
2022-09-20T00:11:04.122Z,7.10
2022-09-20T00:13:31.445Z,7.10
2022-09-20T00:15:58.218Z,5.70
2022-09-20T00:18:25.074Z,5.32
2022-09-20T00:20:52.270Z,6.50
2022-09-20T00:23:19.805Z,5.80
2022-09-20T00:25:54.914Z,8.25
2022-09-20T00:28:21.586Z,5.28
2022-09-20T00:30:49.248Z,8.32
2022-09-20T00:33:16.001Z,6.55
2022-09-20T00:35:45.878Z,4.85
2022-09-20T00:38:13.999Z,6.22
2022-09-20T00:40:42.808Z,4.57
2022-09-20T00:43:17.655Z,5.32
2022-09-20T00:45:49.668Z,7.63
2022-09-20T00:48:30.853Z,6.15
2022-09-20T00:51:11.056Z,5.53
2022-09-20T00:53:44.381Z,4.70
2022-09-20T00:56:19.060Z,4.70
2022-09-20T00:58:56.318Z,4.95
2022-09-20T01:01:22.992Z,5.68
2022-09-20T01:03:50.018Z,5.47
2022-09-20T01:06:17.699Z,5.03
2022-09-20T01:08:49.573Z,14.35
2022-09-20T01:11:16.470Z,5.50
2022-09-20T01:13:43.076Z,4.85
2022-09-20T01:16:12.394Z,4.38
2022-09-20T01:18:41.527Z,4.53
2022-09-20T01:21:09.947Z,4.57
2022-09-20T01:24:10.783Z,5.88
2022-09-20T01:27:14.079Z,4.22
2022-09-20T01:30:08.650Z,6.03
2022-09-20T01:33:00.427Z,4.47
2022-09-20T01:35:28.833Z,6.85
2022-09-20T01:38:16.860Z,4.97
2022-09-20T01:40:47.370Z,6.85
2022-09-20T01:43:50.510Z,5.10
2022-09-20T01:46:33.778Z,3.95
2022-09-20T01:49:15.295Z,4.85
2022-09-20T01:52:00.144Z,4.32
2022-09-20T01:54:57.985Z,6.03
2022-09-20T02:00:31.134Z,5.03
2022-09-20T02:03:09.509Z,5.30
2022-09-20T02:05:58.492Z,4.03
2022-09-20T02:08:27.962Z,4.93
2022-09-20T02:11:06.870Z,4.43
2022-09-20T02:13:39.296Z,5.90
2022-09-20T02:16:34.466Z,5.72
2022-09-20T02:19:16.067Z,5.60
2022-09-20T02:22:11.523Z,4.65
2022-09-20T02:24:46.507Z,6.50
2022-09-20T02:27:31.457Z,6.47
2022-09-20T02:30:10.200Z,5.22
2022-09-20T02:33:18.063Z,5.88
2022-09-20T02:36:17.626Z,4.30
2022-09-20T02:38:53.173Z,5.18
2022-09-20T02:41:52.075Z,5.63
2022-09-20T02:44:31.072Z,5.15
2022-09-20T02:47:23.912Z,4.28
2022-09-20T02:50:15.037Z,5.38
2022-09-20T02:53:05.894Z,5.95
2022-09-20T02:55:42.190Z,7.20
2022-09-20T02:58:47.467Z,6.50
2022-09-20T03:01:22.252Z,3.83
2022-09-20T03:04:30.489Z,7.22
2022-09-20T03:09:38.683Z,7.45
2022-09-20T03:12:33.838Z,6.75
2022-09-20T03:15:31.798Z,6.00
2022-09-20T03:21:10.342Z,6.60
2022-09-20T03:24:21.852Z,5.07
2022-09-20T03:26:48.451Z,5.93
2022-09-20T03:29:36.101Z,5.82
2022-09-20T03:32:40.530Z,6.25
2022-09-20T03:35:37.996Z,6.90
2022-09-20T03:38:29.512Z,7.35
2022-09-20T03:41:12.184Z,6.22
2022-09-20T03:43:57.679Z,6.82
2022-09-20T03:46:28.539Z,6.72
2022-09-20T03:49:04.538Z,7.05
2022-09-20T03:51:49.220Z,6.57
2022-09-20T03:54:28.083Z,7.88
2022-09-20T03:57:16.954Z,5.82
2022-09-20T04:00:10.817Z,8.07
2022-09-20T04:02:46.607Z,6.93
2022-09-20T04:05:23.119Z,5.03
2022-09-20T04:08:14.163Z,4.25
2022-09-20T04:11:11.327Z,4.15
2022-09-20T04:13:42.579Z,5.03
2022-09-20T04:16:49.486Z,4.95
2022-09-20T04:19:33.065Z,4.80
2022-09-20T04:22:01.736Z,4.70
2022-09-20T04:25:05.959Z,6.53
2022-09-20T04:27:44.706Z,5.88
2022-09-20T04:30:18.563Z,6.70
2022-09-20T04:32:56.439Z,5.78
2022-09-20T04:36:06.201Z,5.68
2022-09-20T04:38:34.536Z,6.25
2022-09-20T04:41:50.654Z,4.93
2022-09-20T04:45:05.142Z,4.38
2022-09-20T04:48:09.237Z,4.80
2022-09-20T04:50:54.648Z,4.93
2022-09-20T04:53:58.960Z,6.03
2022-09-20T04:56:53.909Z,4.97
2022-09-20T04:59:45.975Z,5.22
2022-09-20T05:02:48.113Z,6.63
2022-09-20T05:05:41.188Z,5.00
2022-09-20T05:08:29.083Z,5.95
2022-09-20T05:11:35.759Z,5.90
2022-09-20T05:14:24.982Z,7.30
2022-09-20T05:17:14.683Z,5.45
2022-09-20T05:19:48.533Z,6.40
2022-09-20T05:22:39.881Z,5.07
2022-09-20T05:25:27.857Z,6.78
2022-09-20T05:28:12.869Z,5.80
2022-09-20T05:30:48.301Z,7.07
2022-09-20T05:33:51.316Z,5.10
2022-09-20T05:36:49.592Z,4.90
2022-09-20T05:39:28.699Z,6.68
2022-09-20T05:42:05.870Z,8.18
2022-09-20T05:44:56.949Z,6.45
2022-09-20T05:47:32.955Z,6.00
2022-09-20T05:50:29.151Z,8.60
2022-09-20T05:53:10.927Z,7.38
2022-09-20T05:55:43.672Z,8.63
2022-09-20T05:58:32.431Z,7.68
2022-09-20T06:01:29.318Z,9.60
2022-09-20T06:04:29.972Z,6.97
2022-09-20T06:07:29.150Z,8.43
2022-09-20T06:10:07.707Z,5.82
2022-09-20T06:13:16.067Z,8.73
2022-09-20T06:18:34.280Z,6.55
2022-09-20T06:21:19.310Z,6.22
2022-09-20T06:23:46.207Z,8.40
2022-09-20T06:26:26.647Z,9.10
2022-09-20T06:29:02.907Z,7.22
2022-09-20T06:31:29.988Z,9.32
2022-09-20T06:34:05.136Z,7.40
2022-09-20T06:36:55.703Z,6.63
2022-09-20T06:39:55.671Z,9.50
2022-09-20T06:42:29.819Z,6.95
2022-09-20T06:44:56.973Z,8.35
2022-09-20T06:47:23.865Z,7.63
2022-09-20T06:49:50.572Z,12.25
2022-09-20T06:52:19.136Z,8.23
2022-09-20T06:54:48.188Z,13.10
2022-09-20T06:57:19.590Z,12.65
2022-09-20T06:59:46.282Z,10.80
2022-09-20T07:02:13.035Z,9.95
2022-09-20T07:04:40.115Z,10.82
2022-09-20T07:07:09.604Z,9.70
2022-09-20T07:09:36.417Z,11.13
2022-09-20T07:12:03.234Z,15.00
2022-09-20T07:14:29.941Z,11.80
2022-09-20T07:16:56.534Z,13.52
2022-09-20T07:19:23.513Z,14.50
2022-09-20T07:21:50.251Z,9.68
2022-09-20T07:24:16.981Z,11.38
2022-09-20T07:26:57.945Z,13.88
2022-09-20T07:29:25.720Z,9.13
2022-09-20T07:31:53.081Z,9.75
2022-09-20T07:34:20.391Z,11.52
2022-09-20T07:36:51.371Z,8.75
2022-09-20T07:39:18.206Z,11.77
2022-09-20T07:41:48.600Z,8.75
2022-09-20T07:44:21.530Z,11.70
2022-09-20T07:46:49.372Z,8.45
2022-09-20T07:49:16.565Z,9.52
2022-09-20T07:51:43.402Z,8.73
2022-09-20T07:54:10.095Z,10.73
2022-09-20T07:56:36.770Z,9.23
2022-09-20T07:59:03.819Z,10.50
2022-09-20T08:01:30.605Z,8.85
2022-09-20T08:03:57.486Z,7.45
2022-09-20T08:06:25.100Z,7.75
2022-09-20T08:08:52.024Z,7.82
2022-09-20T08:11:27.729Z,8.15
2022-09-20T08:14:11.332Z,7.22
2022-09-20T08:16:44.280Z,8.57
2022-09-20T08:19:20.976Z,7.80
2022-09-20T08:21:48.495Z,9.50
2022-09-20T08:24:16.441Z,6.93
2022-09-20T08:26:44.082Z,5.28
2022-09-20T08:29:11.666Z,4.57
2022-09-20T08:31:40.494Z,5.85
2022-09-20T08:34:09.689Z,6.75
2022-09-20T08:36:41.341Z,6.88
2022-09-20T08:42:11.192Z,4.65
2022-09-20T08:45:00.063Z,3.58
2022-09-20T08:47:34.444Z,3.83
2022-09-20T08:50:08.967Z,3.25
2022-09-20T08:52:38.516Z,8.20
2022-09-20T08:55:20.868Z,2.97
2022-09-20T08:57:50.927Z,4.05
2022-09-20T09:00:20.982Z,3.10
2022-09-20T09:02:49.940Z,3.80
2022-09-20T09:05:31.555Z,2.55
2022-09-20T09:08:00.818Z,2.35
2022-09-20T09:11:04.768Z,3.08
2022-09-20T09:13:58.986Z,2.80
2022-09-20T09:16:34.961Z,3.35
2022-09-20T09:19:34.637Z,3.28
2022-09-20T09:22:03.863Z,2.72
2022-09-20T09:24:33.576Z,3.38
2022-09-20T09:27:27.070Z,3.00
2022-09-20T09:29:55.783Z,3.17
2022-09-20T09:32:29.139Z,4.70
2022-09-20T09:34:57.418Z,3.92
2022-09-20T09:37:30.614Z,3.15
2022-09-20T09:40:09.253Z,2.75
2022-09-20T09:42:36.210Z,3.03
2022-09-20T09:45:15.055Z,6.00
2022-09-20T09:47:41.945Z,4.55
2022-09-20T09:50:23.485Z,2.60
2022-09-20T09:53:10.347Z,2.70
2022-09-20T09:55:49.153Z,2.90
2022-09-20T09:58:30.618Z,3.13
2022-09-20T10:01:01.411Z,2.08
2022-09-20T10:03:53.711Z,2.03
2022-09-20T10:06:30.750Z,2.53
2022-09-20T10:09:09.742Z,2.53
2022-09-20T10:11:48.538Z,4.85
2022-09-20T10:14:39.774Z,2.22
2022-09-20T10:17:39.020Z,1.88
2022-09-20T10:20:34.961Z,2.92
2022-09-20T10:26:16.583Z,2.63
2022-09-20T10:28:54.924Z,3.88
2022-09-20T10:31:40.734Z,4.15
2022-09-20T10:34:36.868Z,3.03
2022-09-20T10:37:13.403Z,2.28
2022-09-20T10:39:43.943Z,2.10
2022-09-20T10:42:54.035Z,1.85
2022-09-20T10:46:14.467Z,2.33
2022-09-20T10:48:38.479Z,2.72
2022-09-20T10:51:14.602Z,3.25
2022-09-20T10:54:08.186Z,3.58
2022-09-20T10:56:47.275Z,3.55
2022-09-20T10:59:20.720Z,2.47
2022-09-20T11:02:18.122Z,2.53
2022-09-20T11:05:07.901Z,2.15
2022-09-20T11:08:14.982Z,2.80
2022-09-20T11:10:50.680Z,3.20
2022-09-20T11:13:29.852Z,3.13
2022-09-20T11:16:41.985Z,5.40
2022-09-20T11:19:18.458Z,4.82
2022-09-20T11:21:51.843Z,3.22
2022-09-20T11:24:30.403Z,2.10
2022-09-20T11:27:14.370Z,1.23
2022-09-20T11:29:50.231Z,2.40
2022-09-20T11:32:32.955Z,4.88
2022-09-20T11:35:11.959Z,2.10
2022-09-20T11:37:43.558Z,3.42
2022-09-20T11:40:25.387Z,1.67
2022-09-20T11:42:56.043Z,2.50
2022-09-20T11:45:28.152Z,3.15
2022-09-20T11:48:01.212Z,1.98
2022-09-20T11:50:43.254Z,3.45
2022-09-20T11:53:25.290Z,1.58
2022-09-20T11:56:00.171Z,1.85
2022-09-20T11:58:28.161Z,1.77
2022-09-20T12:00:58.558Z,1.92
2022-09-20T12:03:41.732Z,2.03
2022-09-20T12:06:22.386Z,1.67
2022-09-20T12:08:51.626Z,1.63
2022-09-20T12:11:42.146Z,1.73
2022-09-20T12:14:19.792Z,1.60
2022-09-20T12:16:48.762Z,1.90
2022-09-20T12:19:21.533Z,2.70
2022-09-20T12:22:00.119Z,2.10
2022-09-20T12:24:34.943Z,1.92
2022-09-20T12:27:27.592Z,1.10
2022-09-20T12:30:04.847Z,1.10
2022-09-20T12:32:38.849Z,1.23
2022-09-20T12:35:36.528Z,1.25
2022-09-20T12:41:16.464Z,0.63
2022-09-20T12:44:03.693Z,2.03
2022-09-20T12:49:41.186Z,1.33
2022-09-20T12:52:47.333Z,1.67
2022-09-20T12:55:51.648Z,1.05
2022-09-20T12:58:23.011Z,2.97
2022-09-20T13:00:55.633Z,1.20
2022-09-20T13:03:23.984Z,1.10
2022-09-20T13:06:17.533Z,1.13
2022-09-20T13:09:04.416Z,1.17
2022-09-20T13:11:55.037Z,1.38
2022-09-20T13:14:28.216Z,1.05
2022-09-20T13:17:02.936Z,0.55
2022-09-20T13:19:39.129Z,0.85
2022-09-20T13:22:24.473Z,0.65
2022-09-20T13:24:56.728Z,2.90
2022-09-20T13:27:29.199Z,1.98
2022-09-20T13:29:55.794Z,1.10
2022-09-20T13:32:32.338Z,1.10
2022-09-20T13:37:35.038Z,1.52
2022-09-20T13:40:03.827Z,1.60
2022-09-20T13:42:33.620Z,1.33
2022-09-20T13:45:04.345Z,2.22
2022-09-20T13:47:32.487Z,1.63
2022-09-20T13:50:18.188Z,2.10
2022-09-20T13:52:52.722Z,1.45
2022-09-20T13:55:27.260Z,2.88
2022-09-20T13:57:56.712Z,1.20
2022-09-20T14:00:28.661Z,1.33
2022-09-20T14:02:55.894Z,2.85
2022-09-20T14:05:26.087Z,1.17
2022-09-20T14:07:53.559Z,2.38
2022-09-20T14:10:41.022Z,1.75
2022-09-20T14:13:11.578Z,1.42
2022-09-20T14:15:47.947Z,3.15
2022-09-20T14:18:20.198Z,1.45
2022-09-20T14:20:48.135Z,0.90
2022-09-20T14:23:28.954Z,2.60
2022-09-20T14:26:17.346Z,1.77
2022-09-20T14:28:44.824Z,1.83
2022-09-20T14:31:20.632Z,1.38
2022-09-20T14:33:54.950Z,0.98
2022-09-20T14:36:25.195Z,1.65
2022-09-20T14:39:04.473Z,1.50
2022-09-20T14:41:38.694Z,2.28
2022-09-20T14:44:16.621Z,1.38
2022-09-20T14:46:43.352Z,2.13
2022-09-20T14:49:43.196Z,1.60
2022-09-20T14:52:28.570Z,2.10
2022-09-20T14:55:16.619Z,1.88
2022-09-20T14:57:45.783Z,1.88
2022-09-20T15:00:15.259Z,2.90
2022-09-20T15:02:44.461Z,3.50
2022-09-20T15:05:27.305Z,1.30
2022-09-20T15:07:58.536Z,3.25
2022-09-20T15:10:25.945Z,2.28
2022-09-20T15:12:52.672Z,2.90
2022-09-20T15:15:19.404Z,4.07
2022-09-20T15:17:47.062Z,1.27
2022-09-20T15:20:24.325Z,2.53
2022-09-20T15:22:51.461Z,2.85
2022-09-20T15:25:21.648Z,1.40
2022-09-20T15:27:51.838Z,1.67
2022-09-20T15:30:20.103Z,2.88
2022-09-20T15:32:47.115Z,2.28
2022-09-20T15:35:14.373Z,1.38
2022-09-20T15:37:41.245Z,2.75
2022-09-20T15:40:09.157Z,1.42
2022-09-20T15:42:41.518Z,1.77
2022-09-20T15:45:10.300Z,1.67
2022-09-20T15:47:38.698Z,1.92
2022-09-20T15:50:09.972Z,2.88
2022-09-20T15:52:39.902Z,1.08
2022-09-20T15:55:08.306Z,2.13
2022-09-20T15:57:35.345Z,1.83
2022-09-20T16:00:02.664Z,2.30
2022-09-20T16:02:29.596Z,1.85
2022-09-20T16:04:58.511Z,2.05
2022-09-20T16:07:27.515Z,3.22
2022-09-20T16:09:57.372Z,2.13
2022-09-20T16:12:25.387Z,6.35
2022-09-20T16:14:52.262Z,1.33
2022-09-20T16:17:39.492Z,1.98
2022-09-20T16:22:34.351Z,3.63
2022-09-20T16:25:06.057Z,1.52
2022-09-20T16:27:34.645Z,1.33
2022-09-20T16:30:03.497Z,1.38
2022-09-20T16:32:30.275Z,2.80
2022-09-20T16:35:00.707Z,2.95
2022-09-20T16:37:32.913Z,2.08
2022-09-20T16:40:00.378Z,3.25
2022-09-20T16:42:27.327Z,2.20
2022-09-20T16:44:54.016Z,1.90
2022-09-20T16:47:23.088Z,2.42
2022-09-20T16:49:50.605Z,3.25
2022-09-20T16:52:17.417Z,1.20
2022-09-20T16:54:44.143Z,2.25
2022-09-20T16:57:10.741Z,1.88
2022-09-20T16:59:37.445Z,1.90
2022-09-20T17:02:04.197Z,1.35
2022-09-20T17:04:30.936Z,1.35
2022-09-20T17:07:00.699Z,1.88
2022-09-20T17:09:28.381Z,2.80
2022-09-20T17:11:55.137Z,1.55
2022-09-20T17:14:21.967Z,3.90
2022-09-20T17:16:49.481Z,1.52
2022-09-20T17:19:20.611Z,1.23
2022-09-20T17:21:52.934Z,3.85
2022-09-20T17:24:20.873Z,1.80
2022-09-20T17:26:48.732Z,2.25
2022-09-20T17:29:17.476Z,4.55
2022-09-20T17:31:54.115Z,3.63
2022-09-20T17:34:22.383Z,1.00
2022-09-20T17:36:50.499Z,2.35
2022-09-20T17:39:17.821Z,1.33
2022-09-20T17:41:46.991Z,2.35
2022-09-20T17:44:14.993Z,2.00
2022-09-20T17:46:48.209Z,1.27
2022-09-20T17:49:18.358Z,1.85
2022-09-20T17:51:51.099Z,1.30
2022-09-20T17:54:19.394Z,1.40
2022-09-20T17:56:49.483Z,1.63
2022-09-20T17:59:17.339Z,2.03
2022-09-20T18:01:48.663Z,1.45
2022-09-20T18:04:16.382Z,4.60
2022-09-20T18:06:48.453Z,3.05
2022-09-20T18:09:20.708Z,2.17
2022-09-20T18:11:50.137Z,2.20
2022-09-20T18:14:19.530Z,3.08
2022-09-20T18:16:48.007Z,1.90
2022-09-20T18:19:16.370Z,3.00
2022-09-20T18:21:43.439Z,2.17
2022-09-20T18:24:12.187Z,1.60
2022-09-20T18:26:40.506Z,2.00
2022-09-20T18:29:11.109Z,3.10
2022-09-20T18:31:50.640Z,2.25
2022-09-20T18:34:20.141Z,2.83
2022-09-20T18:36:53.244Z,3.83
2022-09-20T18:39:24.304Z,3.08
2022-09-20T18:41:53.205Z,2.13
2022-09-20T18:44:21.255Z,2.60
2022-09-20T18:46:48.582Z,5.68
2022-09-20T18:49:17.208Z,2.45
2022-09-20T18:51:45.529Z,2.25
2022-09-20T18:54:12.861Z,3.03
2022-09-20T18:56:41.544Z,4.18
2022-09-20T18:59:20.299Z,4.95
2022-09-20T19:01:56.089Z,2.85
2022-09-20T19:04:49.765Z,3.28
2022-09-20T19:07:35.082Z,3.00
2022-09-20T19:10:08.687Z,2.50
2022-09-20T19:12:59.400Z,2.85
2022-09-20T19:15:45.336Z,2.13
2022-09-20T19:18:35.850Z,4.57
2022-09-20T19:21:30.141Z,2.90
2022-09-20T19:24:32.719Z,3.00
2022-09-20T19:27:00.124Z,2.95
2022-09-20T19:29:28.879Z,6.00
2022-09-20T19:32:00.847Z,4.30
2022-09-20T19:34:34.749Z,2.92
2022-09-20T19:37:08.600Z,1.92
2022-09-20T19:40:04.413Z,2.97
2022-09-20T19:42:53.594Z,3.03
2022-09-20T19:45:29.275Z,3.97
2022-09-20T19:48:04.672Z,2.93
2022-09-20T19:50:48.763Z,2.63
2022-09-20T19:53:18.192Z,3.58
2022-09-20T19:55:48.288Z,3.42
2022-09-20T19:58:15.494Z,8.18
2022-09-20T20:00:47.148Z,2.72
2022-09-20T20:03:16.146Z,2.72
2022-09-20T20:05:50.829Z,3.72
2022-09-20T20:08:27.657Z,3.00
2022-09-20T20:11:07.004Z,5.72
2022-09-20T20:14:03.856Z,3.90
2022-09-20T20:17:00.378Z,6.35
2022-09-20T20:19:43.052Z,4.45
2022-09-20T20:22:43.569Z,3.80
2022-09-20T20:25:29.537Z,2.30
2022-09-20T20:27:56.328Z,3.38
2022-09-20T20:30:23.074Z,3.90
2022-09-20T20:32:51.340Z,3.53
2022-09-20T20:35:19.483Z,4.60
2022-09-20T20:37:47.453Z,3.67
2022-09-20T20:40:15.074Z,3.08
2022-09-20T20:42:42.927Z,2.92
2022-09-20T20:45:11.813Z,3.53
2022-09-20T20:47:40.636Z,3.15
2022-09-20T20:50:08.164Z,4.88
2022-09-20T20:52:35.011Z,3.35
2022-09-20T20:55:01.647Z,4.20
2022-09-20T20:57:29.968Z,6.35
2022-09-20T20:59:56.784Z,5.85
2022-09-20T21:02:23.543Z,3.30
2022-09-20T21:04:50.330Z,3.05
2022-09-20T21:07:18.109Z,2.85
2022-09-20T21:09:46.232Z,4.72
2022-09-20T21:12:13.214Z,3.72
2022-09-20T21:14:40.321Z,4.50
2022-09-20T21:17:07.091Z,4.07
2022-09-20T21:19:34.214Z,2.83
2022-09-20T21:22:01.352Z,3.70
2022-09-20T21:24:28.099Z,2.75
2022-09-20T21:26:57.016Z,4.25
2022-09-20T21:29:23.667Z,5.25
2022-09-20T21:31:51.463Z,7.20
2022-09-20T21:34:18.065Z,3.15
2022-09-20T21:36:45.648Z,3.83
2022-09-20T21:39:12.846Z,4.55
2022-09-20T21:41:40.239Z,3.03
2022-09-20T21:44:09.831Z,3.83
2022-09-20T21:46:42.130Z,3.90
2022-09-20T21:49:11.125Z,5.05
2022-09-20T21:51:42.130Z,3.53
2022-09-20T21:54:09.272Z,5.15
2022-09-20T21:56:37.267Z,10.45
2022-09-20T21:59:06.363Z,4.22
2022-09-20T22:01:40.319Z,3.65
2022-09-20T22:04:09.589Z,3.10
2022-09-20T22:06:38.980Z,3.40
2022-09-20T22:09:08.718Z,3.15
2022-09-20T22:11:40.887Z,2.85
2022-09-20T22:14:09.807Z,3.53
2022-09-20T22:16:42.144Z,4.35
2022-09-20T22:19:13.081Z,3.28
2022-09-20T22:21:42.303Z,3.22
2022-09-20T22:24:10.654Z,3.38
2022-09-20T22:26:45.751Z,6.55
2022-09-20T22:29:12.505Z,5.30
2022-09-20T22:31:45.268Z,2.83
2022-09-20T22:34:17.859Z,7.75
2022-09-20T22:36:46.182Z,5.95
2022-09-20T22:39:13.544Z,3.78
2022-09-20T22:41:41.484Z,4.57
2022-09-20T22:44:08.814Z,4.38
2022-09-20T22:46:36.020Z,2.80
2022-09-20T22:49:05.970Z,4.43
2022-09-20T22:51:33.793Z,3.83
2022-09-20T22:54:04.200Z,3.55
2022-09-20T22:56:31.580Z,5.00
2022-09-20T22:59:00.769Z,5.78
2022-09-20T23:01:30.289Z,6.20
2022-09-20T23:04:07.774Z,3.65
2022-09-20T23:06:38.277Z,5.32
2022-09-20T23:09:08.008Z,5.25
2022-09-20T23:11:36.016Z,5.38
2022-09-20T23:14:07.121Z,3.95
2022-09-20T23:16:36.827Z,3.35
2022-09-20T23:19:06.147Z,4.30
2022-09-20T23:21:34.343Z,3.25
2022-09-20T23:24:03.556Z,4.18
2022-09-20T23:26:31.995Z,4.25
2022-09-20T23:29:11.003Z,2.65
2022-09-20T23:31:39.270Z,4.00
2022-09-20T23:34:07.694Z,4.45
2022-09-20T23:36:38.279Z,4.18
2022-09-20T23:39:06.351Z,4.85
2022-09-20T23:41:33.937Z,3.10
2022-09-20T23:44:00.714Z,5.00
2022-09-20T23:46:27.868Z,4.22
2022-09-20T23:48:54.904Z,6.05
2022-09-20T23:51:24.231Z,4.35
2022-09-20T23:53:52.195Z,4.68
2022-09-20T23:56:20.466Z,3.22
2022-09-20T23:58:47.265Z,4.28
